sensor_id;sensor_type;location;lat;lon;timestamp;P1;durP1;ratioP1;P2;durP2;ratioP2
44558;SDS011;30270;40.238;18.256;2022-08-19T00:02:15;9.45;;;4.10;;
44558;SDS011;30270;40.238;18.256;2022-08-19T00:04:43;12.13;;;4.22;;
44558;SDS011;30270;40.238;18.256;2022-08-19T00:07:13;6.78;;;3.45;;
44558;SDS011;30270;40.238;18.256;2022-08-19T00:09:40;6.47;;;4.22;;
44558;SDS011;30270;40.238;18.256;2022-08-19T00:12:08;5.70;;;3.90;;
44558;SDS011;30270;40.238;18.256;2022-08-19T00:14:36;7.38;;;4.38;;
44558;SDS011;30270;40.238;18.256;2022-08-19T00:17:05;6.88;;;4.55;;
44558;SDS011;30270;40.238;18.256;2022-08-19T00:19:35;9.18;;;4.30;;
44558;SDS011;30270;40.238;18.256;2022-08-19T00:22:03;7.40;;;4.30;;
44558;SDS011;30270;40.238;18.256;2022-08-19T00:24:32;8.30;;;4.25;;
44558;SDS011;30270;40.238;18.256;2022-08-19T00:26:59;6.50;;;4.22;;
44558;SDS011;30270;40.238;18.256;2022-08-19T00:29:28;6.68;;;4.22;;
44558;SDS011;30270;40.238;18.256;2022-08-19T00:31:56;8.85;;;4.22;;
44558;SDS011;30270;40.238;18.256;2022-08-19T00:34:25;10.77;;;4.22;;
44558;SDS011;30270;40.238;18.256;2022-08-19T00:36:57;7.00;;;4.78;;
44558;SDS011;30270;40.238;18.256;2022-08-19T00:39:25;7.97;;;4.35;;
44558;SDS011;30270;40.238;18.256;2022-08-19T00:41:52;6.53;;;4.25;;
44558;SDS011;30270;40.238;18.256;2022-08-19T00:44:22;10.00;;;4.40;;
44558;SDS011;30270;40.238;18.256;2022-08-19T00:46:53;7.93;;;4.47;;
44558;SDS011;30270;40.238;18.256;2022-08-19T00:49:23;8.32;;;4.50;;
44558;SDS011;30270;40.238;18.256;2022-08-19T00:54:48;10.48;;;5.00;;
44558;SDS011;30270;40.238;18.256;2022-08-19T00:57:18;10.98;;;5.05;;
44558;SDS011;30270;40.238;18.256;2022-08-19T00:59:54;13.48;;;4.75;;
44558;SDS011;30270;40.238;18.256;2022-08-19T01:02:23;12.57;;;5.50;;
44558;SDS011;30270;40.238;18.256;2022-08-19T01:04:52;8.55;;;4.43;;
44558;SDS011;30270;40.238;18.256;2022-08-19T01:07:20;11.73;;;6.22;;
44558;SDS011;30270;40.238;18.256;2022-08-19T01:09:48;11.00;;;5.07;;
44558;SDS011;30270;40.238;18.256;2022-08-19T01:12:16;9.30;;;4.90;;
44558;SDS011;30270;40.238;18.256;2022-08-19T01:14:45;11.07;;;4.97;;
44558;SDS011;30270;40.238;18.256;2022-08-19T01:17:13;10.80;;;5.43;;
44558;SDS011;30270;40.238;18.256;2022-08-19T01:19:43;13.80;;;5.65;;
44558;SDS011;30270;40.238;18.256;2022-08-19T01:22:47;13.60;;;5.43;;
44558;SDS011;30270;40.238;18.256;2022-08-19T01:25:18;14.35;;;5.05;;
44558;SDS011;30270;40.238;18.256;2022-08-19T01:27:49;10.07;;;5.90;;
44558;SDS011;30270;40.238;18.256;2022-08-19T01:30:30;11.02;;;4.90;;
44558;SDS011;30270;40.238;18.256;2022-08-19T01:33:00;14.40;;;4.97;;
44558;SDS011;30270;40.238;18.256;2022-08-19T01:35:29;10.88;;;5.03;;
44558;SDS011;30270;40.238;18.256;2022-08-19T01:38:00;11.27;;;5.05;;
44558;SDS011;30270;40.238;18.256;2022-08-19T01:40:35;12.15;;;5.38;;
44558;SDS011;30270;40.238;18.256;2022-08-19T01:43:05;7.60;;;4.28;;
44558;SDS011;30270;40.238;18.256;2022-08-19T01:45:35;7.72;;;3.67;;
44558;SDS011;30270;40.238;18.256;2022-08-19T01:48:08;9.48;;;5.38;;
44558;SDS011;30270;40.238;18.256;2022-08-19T01:50:36;12.93;;;4.60;;
44558;SDS011;30270;40.238;18.256;2022-08-19T01:53:05;12.82;;;4.45;;
44558;SDS011;30270;40.238;18.256;2022-08-19T01:55:38;9.98;;;4.90;;
44558;SDS011;30270;40.238;18.256;2022-08-19T01:58:08;14.18;;;5.22;;
44558;SDS011;30270;40.238;18.256;2022-08-19T02:00:43;12.65;;;5.25;;
44558;SDS011;30270;40.238;18.256;2022-08-19T02:03:12;8.82;;;5.45;;
44558;SDS011;30270;40.238;18.256;2022-08-19T02:05:40;12.73;;;5.15;;
44558;SDS011;30270;40.238;18.256;2022-08-19T02:08:09;8.57;;;4.72;;
44558;SDS011;30270;40.238;18.256;2022-08-19T02:10:39;13.07;;;5.13;;
44558;SDS011;30270;40.238;18.256;2022-08-19T02:13:11;16.95;;;4.80;;
44558;SDS011;30270;40.238;18.256;2022-08-19T02:15:40;11.88;;;4.18;;
44558;SDS011;30270;40.238;18.256;2022-08-19T02:18:07;12.25;;;4.95;;
44558;SDS011;30270;40.238;18.256;2022-08-19T02:20:36;19.08;;;6.03;;
44558;SDS011;30270;40.238;18.256;2022-08-19T02:23:05;11.00;;;5.22;;
44558;SDS011;30270;40.238;18.256;2022-08-19T02:25:33;10.98;;;5.22;;
44558;SDS011;30270;40.238;18.256;2022-08-19T02:28:02;13.35;;;5.72;;
44558;SDS011;30270;40.238;18.256;2022-08-19T02:30:30;11.13;;;4.85;;
44558;SDS011;30270;40.238;18.256;2022-08-19T02:32:58;10.40;;;4.93;;
44558;SDS011;30270;40.238;18.256;2022-08-19T02:35:26;10.57;;;5.10;;
44558;SDS011;30270;40.238;18.256;2022-08-19T02:37:53;10.27;;;4.50;;
44558;SDS011;30270;40.238;18.256;2022-08-19T02:43:07;15.68;;;5.32;;
44558;SDS011;30270;40.238;18.256;2022-08-19T02:45:37;15.85;;;5.53;;
44558;SDS011;30270;40.238;18.256;2022-08-19T02:48:06;14.00;;;4.57;;
44558;SDS011;30270;40.238;18.256;2022-08-19T02:50:39;8.30;;;3.85;;
44558;SDS011;30270;40.238;18.256;2022-08-19T02:53:07;15.50;;;4.97;;
44558;SDS011;30270;40.238;18.256;2022-08-19T02:55:35;9.93;;;4.75;;
44558;SDS011;30270;40.238;18.256;2022-08-19T02:58:02;9.88;;;5.20;;
44558;SDS011;30270;40.238;18.256;2022-08-19T03:00:30;13.70;;;5.28;;
44558;SDS011;30270;40.238;18.256;2022-08-19T03:02:57;9.43;;;4.28;;
44558;SDS011;30270;40.238;18.256;2022-08-19T03:05:25;25.67;;;6.28;;
44558;SDS011;30270;40.238;18.256;2022-08-19T03:07:54;19.92;;;5.85;;
44558;SDS011;30270;40.238;18.256;2022-08-19T03:10:22;12.75;;;5.63;;
44558;SDS011;30270;40.238;18.256;2022-08-19T03:12:49;10.52;;;6.00;;
44558;SDS011;30270;40.238;18.256;2022-08-19T03:15:17;13.00;;;5.18;;
44558;SDS011;30270;40.238;18.256;2022-08-19T03:17:45;9.23;;;4.47;;
44558;SDS011;30270;40.238;18.256;2022-08-19T03:20:12;12.18;;;4.65;;
44558;SDS011;30270;40.238;18.256;2022-08-19T03:22:40;14.10;;;5.25;;
44558;SDS011;30270;40.238;18.256;2022-08-19T03:25:07;9.82;;;5.18;;
44558;SDS011;30270;40.238;18.256;2022-08-19T03:27:35;13.23;;;4.65;;
44558;SDS011;30270;40.238;18.256;2022-08-19T03:30:03;14.13;;;4.53;;
44558;SDS011;30270;40.238;18.256;2022-08-19T03:32:31;13.35;;;5.85;;
44558;SDS011;30270;40.238;18.256;2022-08-19T03:34:59;15.18;;;5.80;;
44558;SDS011;30270;40.238;18.256;2022-08-19T03:37:27;12.98;;;5.35;;
44558;SDS011;30270;40.238;18.256;2022-08-19T03:39:55;17.90;;;5.10;;
44558;SDS011;30270;40.238;18.256;2022-08-19T03:42:22;10.95;;;6.18;;
44558;SDS011;30270;40.238;18.256;2022-08-19T03:44:50;17.65;;;4.82;;
44558;SDS011;30270;40.238;18.256;2022-08-19T03:47:17;13.85;;;5.10;;
44558;SDS011;30270;40.238;18.256;2022-08-19T03:49:45;12.02;;;6.25;;
44558;SDS011;30270;40.238;18.256;2022-08-19T03:52:13;11.25;;;4.82;;
44558;SDS011;30270;40.238;18.256;2022-08-19T03:54:40;14.80;;;4.95;;
44558;SDS011;30270;40.238;18.256;2022-08-19T03:57:08;12.80;;;4.57;;
44558;SDS011;30270;40.238;18.256;2022-08-19T03:59:36;16.25;;;4.90;;
44558;SDS011;30270;40.238;18.256;2022-08-19T04:02:06;14.85;;;4.68;;
44558;SDS011;30270;40.238;18.256;2022-08-19T04:04:38;11.27;;;5.25;;
44558;SDS011;30270;40.238;18.256;2022-08-19T04:07:08;19.75;;;5.38;;
44558;SDS011;30270;40.238;18.256;2022-08-19T04:09:37;11.77;;;4.78;;
44558;SDS011;30270;40.238;18.256;2022-08-19T04:12:05;18.75;;;6.03;;
44558;SDS011;30270;40.238;18.256;2022-08-19T04:14:33;12.80;;;4.78;;
44558;SDS011;30270;40.238;18.256;2022-08-19T04:17:01;15.57;;;6.22;;
44558;SDS011;30270;40.238;18.256;2022-08-19T04:19:33;32.35;;;7.43;;
44558;SDS011;30270;40.238;18.256;2022-08-19T04:22:02;14.30;;;4.97;;
44558;SDS011;30270;40.238;18.256;2022-08-19T04:24:30;14.07;;;5.18;;
44558;SDS011;30270;40.238;18.256;2022-08-19T04:26:59;12.70;;;5.75;;
44558;SDS011;30270;40.238;18.256;2022-08-19T04:29:28;12.30;;;5.43;;
44558;SDS011;30270;40.238;18.256;2022-08-19T04:31:57;11.38;;;5.82;;
44558;SDS011;30270;40.238;18.256;2022-08-19T04:34:26;10.00;;;5.07;;
44558;SDS011;30270;40.238;18.256;2022-08-19T04:36:56;11.05;;;5.68;;
44558;SDS011;30270;40.238;18.256;2022-08-19T04:39:27;16.50;;;5.50;;
44558;SDS011;30270;40.238;18.256;2022-08-19T04:42:18;9.95;;;5.05;;
44558;SDS011;30270;40.238;18.256;2022-08-19T04:45:08;10.52;;;5.10;;
44558;SDS011;30270;40.238;18.256;2022-08-19T04:47:41;16.27;;;3.90;;
44558;SDS011;30270;40.238;18.256;2022-08-19T04:50:10;11.70;;;3.83;;
44558;SDS011;30270;40.238;18.256;2022-08-19T04:52:38;14.00;;;6.30;;
44558;SDS011;30270;40.238;18.256;2022-08-19T04:55:10;14.00;;;4.22;;
44558;SDS011;30270;40.238;18.256;2022-08-19T04:57:38;20.75;;;5.30;;
44558;SDS011;30270;40.238;18.256;2022-08-19T05:00:08;11.90;;;5.00;;
44558;SDS011;30270;40.238;18.256;2022-08-19T05:02:37;12.75;;;4.43;;
44558;SDS011;30270;40.238;18.256;2022-08-19T05:05:05;10.55;;;3.83;;
44558;SDS011;30270;40.238;18.256;2022-08-19T05:07:33;9.70;;;3.95;;
44558;SDS011;30270;40.238;18.256;2022-08-19T05:10:03;12.10;;;5.63;;
44558;SDS011;30270;40.238;18.256;2022-08-19T05:12:32;8.02;;;4.40;;
44558;SDS011;30270;40.238;18.256;2022-08-19T05:15:01;16.67;;;4.60;;
44558;SDS011;30270;40.238;18.256;2022-08-19T05:17:30;13.82;;;5.25;;
44558;SDS011;30270;40.238;18.256;2022-08-19T05:20:02;17.27;;;5.60;;
44558;SDS011;30270;40.238;18.256;2022-08-19T05:22:50;9.77;;;3.95;;
44558;SDS011;30270;40.238;18.256;2022-08-19T05:25:19;17.02;;;5.32;;
44558;SDS011;30270;40.238;18.256;2022-08-19T05:27:48;8.55;;;3.90;;
44558;SDS011;30270;40.238;18.256;2022-08-19T05:30:15;11.70;;;4.80;;
44558;SDS011;30270;40.238;18.256;2022-08-19T05:32:44;9.43;;;4.68;;
44558;SDS011;30270;40.238;18.256;2022-08-19T05:35:11;12.20;;;4.22;;
44558;SDS011;30270;40.238;18.256;2022-08-19T05:37:39;9.50;;;4.22;;
44558;SDS011;30270;40.238;18.256;2022-08-19T05:40:08;8.80;;;4.00;;
44558;SDS011;30270;40.238;18.256;2022-08-19T05:42:36;12.77;;;5.00;;
44558;SDS011;30270;40.238;18.256;2022-08-19T05:45:04;8.50;;;5.00;;
44558;SDS011;30270;40.238;18.256;2022-08-19T05:47:33;10.68;;;4.25;;
44558;SDS011;30270;40.238;18.256;2022-08-19T05:50:02;8.88;;;4.80;;
44558;SDS011;30270;40.238;18.256;2022-08-19T05:52:30;11.20;;;4.53;;
44558;SDS011;30270;40.238;18.256;2022-08-19T05:55:00;10.52;;;5.15;;
44558;SDS011;30270;40.238;18.256;2022-08-19T05:57:27;13.48;;;5.15;;
44558;SDS011;30270;40.238;18.256;2022-08-19T05:59:56;13.30;;;5.35;;
44558;SDS011;30270;40.238;18.256;2022-08-19T06:02:37;9.48;;;4.53;;
44558;SDS011;30270;40.238;18.256;2022-08-19T06:05:05;9.88;;;5.43;;
44558;SDS011;30270;40.238;18.256;2022-08-19T06:07:36;9.98;;;4.63;;
44558;SDS011;30270;40.238;18.256;2022-08-19T06:10:08;12.18;;;4.47;;
44558;SDS011;30270;40.238;18.256;2022-08-19T06:12:37;10.23;;;5.60;;
44558;SDS011;30270;40.238;18.256;2022-08-19T06:15:07;15.13;;;4.78;;
44558;SDS011;30270;40.238;18.256;2022-08-19T06:17:38;11.90;;;4.60;;
44558;SDS011;30270;40.238;18.256;2022-08-19T06:20:07;14.60;;;4.35;;
44558;SDS011;30270;40.238;18.256;2022-08-19T06:22:42;13.63;;;4.55;;
44558;SDS011;30270;40.238;18.256;2022-08-19T06:25:11;12.80;;;4.45;;
44558;SDS011;30270;40.238;18.256;2022-08-19T06:27:41;10.18;;;4.38;;
44558;SDS011;30270;40.238;18.256;2022-08-19T06:30:28;13.30;;;5.45;;
44558;SDS011;30270;40.238;18.256;2022-08-19T06:32:56;7.10;;;4.10;;
44558;SDS011;30270;40.238;18.256;2022-08-19T06:35:25;16.67;;;5.25;;
44558;SDS011;30270;40.238;18.256;2022-08-19T06:37:54;11.38;;;4.55;;
44558;SDS011;30270;40.238;18.256;2022-08-19T06:40:23;12.15;;;4.50;;
44558;SDS011;30270;40.238;18.256;2022-08-19T06:42:51;15.55;;;4.35;;
44558;SDS011;30270;40.238;18.256;2022-08-19T06:45:20;14.63;;;4.95;;
44558;SDS011;30270;40.238;18.256;2022-08-19T06:47:49;13.23;;;4.97;;
44558;SDS011;30270;40.238;18.256;2022-08-19T06:50:21;12.02;;;4.60;;
44558;SDS011;30270;40.238;18.256;2022-08-19T06:52:50;11.52;;;4.28;;
44558;SDS011;30270;40.238;18.256;2022-08-19T06:55:18;15.80;;;4.57;;
44558;SDS011;30270;40.238;18.256;2022-08-19T06:57:45;11.52;;;4.22;;
44558;SDS011;30270;40.238;18.256;2022-08-19T07:00:15;9.75;;;3.25;;
44558;SDS011;30270;40.238;18.256;2022-08-19T07:02:44;11.90;;;4.47;;
44558;SDS011;30270;40.238;18.256;2022-08-19T07:05:11;11.98;;;5.30;;
44558;SDS011;30270;40.238;18.256;2022-08-19T07:07:39;15.07;;;5.30;;
44558;SDS011;30270;40.238;18.256;2022-08-19T07:10:10;12.38;;;3.83;;
44558;SDS011;30270;40.238;18.256;2022-08-19T07:12:38;11.07;;;4.30;;
44558;SDS011;30270;40.238;18.256;2022-08-19T07:15:07;14.63;;;4.95;;
44558;SDS011;30270;40.238;18.256;2022-08-19T07:17:38;11.35;;;5.10;;
44558;SDS011;30270;40.238;18.256;2022-08-19T07:20:06;12.70;;;4.30;;
44558;SDS011;30270;40.238;18.256;2022-08-19T07:22:34;9.45;;;4.70;;
44558;SDS011;30270;40.238;18.256;2022-08-19T07:25:02;14.02;;;4.57;;
44558;SDS011;30270;40.238;18.256;2022-08-19T07:27:30;12.77;;;4.68;;
44558;SDS011;30270;40.238;18.256;2022-08-19T07:29:58;14.30;;;4.22;;
44558;SDS011;30270;40.238;18.256;2022-08-19T07:32:26;12.27;;;4.78;;
44558;SDS011;30270;40.238;18.256;2022-08-19T07:34:54;18.70;;;5.63;;
44558;SDS011;30270;40.238;18.256;2022-08-19T07:37:24;12.48;;;3.92;;
44558;SDS011;30270;40.238;18.256;2022-08-19T07:39:56;15.90;;;5.13;;
44558;SDS011;30270;40.238;18.256;2022-08-19T07:42:24;13.52;;;4.47;;
44558;SDS011;30270;40.238;18.256;2022-08-19T07:44:52;11.55;;;4.80;;
44558;SDS011;30270;40.238;18.256;2022-08-19T07:47:20;11.73;;;3.67;;
44558;SDS011;30270;40.238;18.256;2022-08-19T07:49:48;9.30;;;4.00;;
44558;SDS011;30270;40.238;18.256;2022-08-19T07:52:15;13.27;;;3.78;;
44558;SDS011;30270;40.238;18.256;2022-08-19T07:54:43;19.92;;;5.88;;
44558;SDS011;30270;40.238;18.256;2022-08-19T07:57:11;11.35;;;4.80;;
44558;SDS011;30270;40.238;18.256;2022-08-19T07:59:38;15.55;;;5.28;;
44558;SDS011;30270;40.238;18.256;2022-08-19T08:02:07;11.45;;;4.68;;
44558;SDS011;30270;40.238;18.256;2022-08-19T08:04:35;12.57;;;4.32;;
44558;SDS011;30270;40.238;18.256;2022-08-19T08:07:21;12.88;;;3.90;;
44558;SDS011;30270;40.238;18.256;2022-08-19T08:10:07;17.90;;;4.47;;
44558;SDS011;30270;40.238;18.256;2022-08-19T08:12:39;17.23;;;5.68;;
44558;SDS011;30270;40.238;18.256;2022-08-19T08:15:09;18.13;;;4.80;;
44558;SDS011;30270;40.238;18.256;2022-08-19T08:17:43;14.90;;;4.53;;
44558;SDS011;30270;40.238;18.256;2022-08-19T08:20:13;12.02;;;4.32;;
44558;SDS011;30270;40.238;18.256;2022-08-19T08:22:45;14.32;;;4.32;;
44558;SDS011;30270;40.238;18.256;2022-08-19T08:25:33;11.35;;;3.88;;
44558;SDS011;30270;40.238;18.256;2022-08-19T08:28:02;12.52;;;4.53;;
44558;SDS011;30270;40.238;18.256;2022-08-19T08:30:31;14.35;;;4.93;;
44558;SDS011;30270;40.238;18.256;2022-08-19T08:33:03;10.98;;;4.07;;
44558;SDS011;30270;40.238;18.256;2022-08-19T08:35:31;9.70;;;3.78;;
44558;SDS011;30270;40.238;18.256;2022-08-19T08:38:00;16.52;;;4.88;;
44558;SDS011;30270;40.238;18.256;2022-08-19T08:45:56;10.60;;;4.00;;
44558;SDS011;30270;40.238;18.256;2022-08-19T08:51:40;12.38;;;4.55;;
44558;SDS011;30270;40.238;18.256;2022-08-19T08:54:18;14.10;;;5.78;;
44558;SDS011;30270;40.238;18.256;2022-08-19T08:56:47;13.18;;;6.15;;
44558;SDS011;30270;40.238;18.256;2022-08-19T08:59:20;15.57;;;5.85;;
44558;SDS011;30270;40.238;18.256;2022-08-19T09:01:56;14.23;;;4.43;;
44558;SDS011;30270;40.238;18.256;2022-08-19T09:04:23;11.00;;;4.18;;
44558;SDS011;30270;40.238;18.256;2022-08-19T09:09:46;9.32;;;4.57;;
44558;SDS011;30270;40.238;18.256;2022-08-19T09:14:58;11.88;;;3.85;;
44558;SDS011;30270;40.238;18.256;2022-08-19T09:17:31;12.10;;;4.25;;
44558;SDS011;30270;40.238;18.256;2022-08-19T09:20:01;14.98;;;3.90;;
44558;SDS011;30270;40.238;18.256;2022-08-19T09:22:36;20.17;;;5.13;;
44558;SDS011;30270;40.238;18.256;2022-08-19T09:25:07;9.48;;;4.30;;
44558;SDS011;30270;40.238;18.256;2022-08-19T09:27:36;16.65;;;4.85;;
44558;SDS011;30270;40.238;18.256;2022-08-19T09:30:06;13.30;;;5.93;;
44558;SDS011;30270;40.238;18.256;2022-08-19T09:32:35;10.27;;;5.07;;
44558;SDS011;30270;40.238;18.256;2022-08-19T09:35:04;12.68;;;4.97;;
44558;SDS011;30270;40.238;18.256;2022-08-19T09:37:33;12.70;;;4.82;;
44558;SDS011;30270;40.238;18.256;2022-08-19T09:40:01;12.20;;;4.18;;
44558;SDS011;30270;40.238;18.256;2022-08-19T09:42:29;14.10;;;4.78;;
44558;SDS011;30270;40.238;18.256;2022-08-19T09:44:57;15.68;;;5.57;;
44558;SDS011;30270;40.238;18.256;2022-08-19T09:47:25;11.40;;;3.90;;
44558;SDS011;30270;40.238;18.256;2022-08-19T09:49:55;18.15;;;5.15;;
44558;SDS011;30270;40.238;18.256;2022-08-19T09:52:24;14.38;;;4.82;;
44558;SDS011;30270;40.238;18.256;2022-08-19T09:54:52;13.18;;;4.78;;
44558;SDS011;30270;40.238;18.256;2022-08-19T09:57:20;15.98;;;5.25;;
44558;SDS011;30270;40.238;18.256;2022-08-19T09:59:47;14.00;;;6.05;;
44558;SDS011;30270;40.238;18.256;2022-08-19T10:02:16;16.05;;;4.43;;
44558;SDS011;30270;40.238;18.256;2022-08-19T10:04:46;15.07;;;5.22;;
44558;SDS011;30270;40.238;18.256;2022-08-19T10:07:32;16.67;;;5.57;;
44558;SDS011;30270;40.238;18.256;2022-08-19T10:10:00;13.77;;;5.28;;
44558;SDS011;30270;40.238;18.256;2022-08-19T10:12:29;13.60;;;5.13;;
44558;SDS011;30270;40.238;18.256;2022-08-19T10:14:57;15.63;;;5.68;;
44558;SDS011;30270;40.238;18.256;2022-08-19T10:17:25;11.27;;;4.72;;
44558;SDS011;30270;40.238;18.256;2022-08-19T10:19:53;15.45;;;5.40;;
44558;SDS011;30270;40.238;18.256;2022-08-19T10:22:22;11.68;;;5.13;;
44558;SDS011;30270;40.238;18.256;2022-08-19T10:24:49;13.57;;;5.00;;
44558;SDS011;30270;40.238;18.256;2022-08-19T10:27:18;12.75;;;5.63;;
44558;SDS011;30270;40.238;18.256;2022-08-19T10:29:46;20.77;;;6.03;;
44558;SDS011;30270;40.238;18.256;2022-08-19T10:32:14;13.82;;;4.68;;
44558;SDS011;30270;40.238;18.256;2022-08-19T10:34:42;22.40;;;5.95;;
44558;SDS011;30270;40.238;18.256;2022-08-19T10:37:10;13.75;;;4.20;;
44558;SDS011;30270;40.238;18.256;2022-08-19T10:39:37;14.02;;;5.97;;
44558;SDS011;30270;40.238;18.256;2022-08-19T10:42:06;17.58;;;5.25;;
44558;SDS011;30270;40.238;18.256;2022-08-19T10:44:34;17.88;;;5.78;;
44558;SDS011;30270;40.238;18.256;2022-08-19T10:47:02;11.68;;;5.32;;
44558;SDS011;30270;40.238;18.256;2022-08-19T10:49:31;12.82;;;5.15;;
44558;SDS011;30270;40.238;18.256;2022-08-19T10:51:59;17.95;;;5.50;;
44558;SDS011;30270;40.238;18.256;2022-08-19T10:55:02;18.25;;;5.80;;
44558;SDS011;30270;40.238;18.256;2022-08-19T10:57:51;16.48;;;5.60;;
44558;SDS011;30270;40.238;18.256;2022-08-19T11:00:27;16.63;;;5.57;;
44558;SDS011;30270;40.238;18.256;2022-08-19T11:02:54;20.25;;;5.45;;
44558;SDS011;30270;40.238;18.256;2022-08-19T11:05:22;22.15;;;5.75;;
44558;SDS011;30270;40.238;18.256;2022-08-19T11:07:50;16.48;;;5.65;;
44558;SDS011;30270;40.238;18.256;2022-08-19T11:10:18;18.42;;;5.78;;
44558;SDS011;30270;40.238;18.256;2022-08-19T11:12:47;27.58;;;5.85;;
44558;SDS011;30270;40.238;18.256;2022-08-19T11:15:15;18.23;;;5.55;;
44558;SDS011;30270;40.238;18.256;2022-08-19T11:17:43;21.23;;;6.30;;
44558;SDS011;30270;40.238;18.256;2022-08-19T11:20:11;15.55;;;5.93;;
44558;SDS011;30270;40.238;18.256;2022-08-19T11:22:40;20.67;;;5.57;;
44558;SDS011;30270;40.238;18.256;2022-08-19T11:25:09;14.68;;;5.47;;
44558;SDS011;30270;40.238;18.256;2022-08-19T11:27:40;14.43;;;5.57;;
44558;SDS011;30270;40.238;18.256;2022-08-19T11:30:10;16.00;;;5.40;;
44558;SDS011;30270;40.238;18.256;2022-08-19T11:32:40;18.85;;;5.68;;
44558;SDS011;30270;40.238;18.256;2022-08-19T11:35:10;13.45;;;4.88;;
44558;SDS011;30270;40.238;18.256;2022-08-19T11:37:38;17.15;;;5.22;;
44558;SDS011;30270;40.238;18.256;2022-08-19T11:40:06;16.65;;;5.53;;
44558;SDS011;30270;40.238;18.256;2022-08-19T11:42:34;23.63;;;6.57;;
44558;SDS011;30270;40.238;18.256;2022-08-19T11:45:21;20.85;;;5.57;;
44558;SDS011;30270;40.238;18.256;2022-08-19T11:47:49;16.38;;;5.72;;
44558;SDS011;30270;40.238;18.256;2022-08-19T11:50:17;15.95;;;5.60;;
44558;SDS011;30270;40.238;18.256;2022-08-19T11:52:45;17.25;;;5.32;;
44558;SDS011;30270;40.238;18.256;2022-08-19T11:55:13;15.57;;;5.85;;
44558;SDS011;30270;40.238;18.256;2022-08-19T11:57:41;21.88;;;5.22;;
44558;SDS011;30270;40.238;18.256;2022-08-19T12:00:10;15.60;;;5.53;;
44558;SDS011;30270;40.238;18.256;2022-08-19T12:02:40;19.95;;;6.25;;
44558;SDS011;30270;40.238;18.256;2022-08-19T12:05:09;14.68;;;6.07;;
44558;SDS011;30270;40.238;18.256;2022-08-19T12:07:38;18.58;;;6.28;;
44558;SDS011;30270;40.238;18.256;2022-08-19T12:10:06;20.08;;;5.88;;
44558;SDS011;30270;40.238;18.256;2022-08-19T12:12:34;14.73;;;4.28;;
44558;SDS011;30270;40.238;18.256;2022-08-19T12:15:02;14.30;;;5.18;;
44558;SDS011;30270;40.238;18.256;2022-08-19T12:17:30;15.10;;;5.65;;
44558;SDS011;30270;40.238;18.256;2022-08-19T12:19:58;12.75;;;5.30;;
44558;SDS011;30270;40.238;18.256;2022-08-19T12:22:25;16.73;;;5.80;;
44558;SDS011;30270;40.238;18.256;2022-08-19T12:24:54;14.15;;;4.93;;
44558;SDS011;30270;40.238;18.256;2022-08-19T12:27:21;13.00;;;5.13;;
44558;SDS011;30270;40.238;18.256;2022-08-19T12:29:52;10.65;;;4.60;;
44558;SDS011;30270;40.238;18.256;2022-08-19T12:32:19;12.88;;;4.22;;
44558;SDS011;30270;40.238;18.256;2022-08-19T12:34:48;14.32;;;4.65;;
44558;SDS011;30270;40.238;18.256;2022-08-19T12:37:15;17.00;;;4.57;;
44558;SDS011;30270;40.238;18.256;2022-08-19T12:39:52;15.88;;;5.05;;
44558;SDS011;30270;40.238;18.256;2022-08-19T12:42:22;22.10;;;6.68;;
44558;SDS011;30270;40.238;18.256;2022-08-19T12:44:50;16.30;;;6.35;;
44558;SDS011;30270;40.238;18.256;2022-08-19T12:47:19;15.80;;;6.47;;
44558;SDS011;30270;40.238;18.256;2022-08-19T12:49:48;14.45;;;6.50;;
44558;SDS011;30270;40.238;18.256;2022-08-19T12:52:16;15.68;;;6.22;;
44558;SDS011;30270;40.238;18.256;2022-08-19T12:54:47;21.67;;;6.68;;
44558;SDS011;30270;40.238;18.256;2022-08-19T12:57:15;18.52;;;5.15;;
44558;SDS011;30270;40.238;18.256;2022-08-19T12:59:44;17.98;;;6.45;;
44558;SDS011;30270;40.238;18.256;2022-08-19T13:02:12;23.05;;;6.32;;
44558;SDS011;30270;40.238;18.256;2022-08-19T13:04:40;19.83;;;6.53;;
44558;SDS011;30270;40.238;18.256;2022-08-19T13:07:08;21.98;;;6.10;;
44558;SDS011;30270;40.238;18.256;2022-08-19T13:09:36;16.20;;;5.68;;
44558;SDS011;30270;40.238;18.256;2022-08-19T13:12:04;17.60;;;5.63;;
44558;SDS011;30270;40.238;18.256;2022-08-19T13:14:34;24.45;;;7.75;;
44558;SDS011;30270;40.238;18.256;2022-08-19T13:17:02;16.83;;;7.53;;
44558;SDS011;30270;40.238;18.256;2022-08-19T13:19:30;22.45;;;8.48;;
44558;SDS011;30270;40.238;18.256;2022-08-19T13:21:59;19.63;;;9.25;;
44558;SDS011;30270;40.238;18.256;2022-08-19T13:24:27;18.35;;;8.73;;
44558;SDS011;30270;40.238;18.256;2022-08-19T13:26:55;16.20;;;8.55;;
44558;SDS011;30270;40.238;18.256;2022-08-19T13:29:22;18.02;;;8.50;;
44558;SDS011;30270;40.238;18.256;2022-08-19T13:32:09;17.67;;;7.28;;
44558;SDS011;30270;40.238;18.256;2022-08-19T13:34:55;17.45;;;6.45;;
44558;SDS011;30270;40.238;18.256;2022-08-19T13:37:23;19.30;;;6.93;;
44558;SDS011;30270;40.238;18.256;2022-08-19T13:40:15;18.35;;;8.18;;
44558;SDS011;30270;40.238;18.256;2022-08-19T13:42:46;25.60;;;9.25;;
44558;SDS011;30270;40.238;18.256;2022-08-19T13:45:16;26.13;;;6.55;;
44558;SDS011;30270;40.238;18.256;2022-08-19T13:47:47;21.25;;;7.00;;
44558;SDS011;30270;40.238;18.256;2022-08-19T13:50:26;18.90;;;7.10;;
44558;SDS011;30270;40.238;18.256;2022-08-19T13:52:55;20.48;;;6.85;;
44558;SDS011;30270;40.238;18.256;2022-08-19T13:55:23;16.52;;;5.38;;
44558;SDS011;30270;40.238;18.256;2022-08-19T13:57:52;19.48;;;5.97;;
44558;SDS011;30270;40.238;18.256;2022-08-19T14:00:22;13.57;;;5.80;;
44558;SDS011;30270;40.238;18.256;2022-08-19T14:02:53;26.52;;;6.22;;
44558;SDS011;30270;40.238;18.256;2022-08-19T14:05:25;20.33;;;6.50;;
44558;SDS011;30270;40.238;18.256;2022-08-19T14:07:55;20.70;;;6.03;;
44558;SDS011;30270;40.238;18.256;2022-08-19T14:10:24;19.17;;;6.57;;
44558;SDS011;30270;40.238;18.256;2022-08-19T14:12:56;17.38;;;6.07;;
44558;SDS011;30270;40.238;18.256;2022-08-19T14:15:26;15.70;;;6.18;;
44558;SDS011;30270;40.238;18.256;2022-08-19T14:17:56;18.38;;;6.53;;
44558;SDS011;30270;40.238;18.256;2022-08-19T14:20:24;15.90;;;6.88;;
44558;SDS011;30270;40.238;18.256;2022-08-19T14:22:53;27.55;;;6.68;;
44558;SDS011;30270;40.238;18.256;2022-08-19T14:25:26;13.43;;;5.47;;
44558;SDS011;30270;40.238;18.256;2022-08-19T14:27:56;21.67;;;6.05;;
44558;SDS011;30270;40.238;18.256;2022-08-19T14:30:25;12.10;;;6.30;;
44558;SDS011;30270;40.238;18.256;2022-08-19T14:32:55;17.08;;;6.47;;
44558;SDS011;30270;40.238;18.256;2022-08-19T14:35:26;15.55;;;5.93;;
44558;SDS011;30270;40.238;18.256;2022-08-19T14:37:54;22.60;;;6.63;;
44558;SDS011;30270;40.238;18.256;2022-08-19T14:40:25;19.05;;;6.68;;
44558;SDS011;30270;40.238;18.256;2022-08-19T14:42:56;16.02;;;6.10;;
44558;SDS011;30270;40.238;18.256;2022-08-19T14:45:33;20.92;;;7.57;;
44558;SDS011;30270;40.238;18.256;2022-08-19T14:48:06;17.88;;;5.68;;
44558;SDS011;30270;40.238;18.256;2022-08-19T14:50:36;17.58;;;6.22;;
44558;SDS011;30270;40.238;18.256;2022-08-19T14:53:06;22.38;;;7.95;;
44558;SDS011;30270;40.238;18.256;2022-08-19T14:55:34;22.30;;;5.97;;
44558;SDS011;30270;40.238;18.256;2022-08-19T14:58:02;26.25;;;7.53;;
44558;SDS011;30270;40.238;18.256;2022-08-19T15:00:31;18.52;;;5.57;;